Wetterdaten: Woche 13.09.10 - 19.09.10 (KW37)
Datum Zeit Temp. Innen Temp. Aussen UV X Diff Temp. Feuchte Inne Feuchte Auss Sonnenschein Luftdruck Regen ab 0,1 Wind Sonnenschein T Regendauer Windben
13.09.2010 00:00 19,8 C 12,3 C 0,0 UV-I 0,0 C 66 % 94 % 0 % 1023,1 hPa 0,0 l/m 0,0 km/h (0 Bft) 0,00 h 0,20 h 0,0 km/h (0 Bft)
13.09.2010 01:00 19,6 C 11,9 C 0,0 UV-I 0,0 C 65 % 94 % 0 % 1023,3 hPa 0,0 l/m 0,0 km/h (0 Bft) 0,00 h 0,20 h 0,0 km/h (0 Bft)
13.09.2010 02:00 19,3 C 11,7 C 0,0 UV-I 0,0 C 65 % 94 % 0 % 1023,5 hPa 0,0 l/m 0,2 km/h (0 Bft) 0,00 h 0,10 h 1,4 km/h (1 Bft)
13.09.2010 03:00 19,3 C 12,0 C 0,0 UV-I 0,0 C 65 % 95 % 0 % 1024,1 hPa 0,0 l/m 1,0 km/h (0 Bft) 0,00 h 0,07 h 2,4 km/h (1 Bft)
13.09.2010 04:00 19,2 C 11,5 C 0,0 UV-I 0,0 C 64 % 94 % 0 % 1024,4 hPa 0,0 l/m 0,0 km/h (0 Bft) 0,00 h 0,10 h 0,2 km/h (0 Bft)
13.09.2010 05:00 18,9 C 11,0 C 0,0 UV-I 0,0 C 63 % 95 % 0 % 1024,2 hPa 0,0 l/m 0,1 km/h (0 Bft) 0,00 h 0,17 h 0,3 km/h (0 Bft)
13.09.2010 06:00 18,6 C 10,5 C 0,0 UV-I 0,0 C 64 % 95 % 0 % 1024,2 hPa 0,0 l/m 0,0 km/h (0 Bft) 0,00 h 0,30 h 0,0 km/h (0 Bft)
13.09.2010 07:00 18,5 C 10,8 C 0,4 UV-I 0,0 C 64 % 95 % 0 % 1024,7 hPa 0,0 l/m 0,0 km/h (0 Bft) 0,00 h 0,27 h 0,0 km/h (0 Bft)
13.09.2010 08:00 18,6 C 11,2 C 1,0 UV-I 1,0 C 64 % 95 % 26 % 1025,1 hPa 0,0 l/m 0,3 km/h (0 Bft) 0,23 h 0,10 h 1,5 km/h (1 Bft)
13.09.2010 09:00 18,7 C 13,1 C 1,8 UV-I 6,3 C 65 % 95 % 100 % 1025,4 hPa 0,0 l/m 1,3 km/h (1 Bft) 1,00 h 0,00 h 3,3 km/h (1 Bft)
13.09.2010 10:00 19,0 C 14,9 C 4,2 UV-I 6,6 C 66 % 91 % 100 % 1026,0 hPa 0,0 l/m 2,8 km/h (1 Bft) 0,90 h 0,00 h 4,9 km/h (1 Bft)
13.09.2010 11:00 19,4 C 15,8 C 4,4 UV-I 6,5 C 65 % 87 % 100 % 1026,5 hPa 0,0 l/m 3,4 km/h (1 Bft) 0,83 h 0,00 h 7,3 km/h (2 Bft)
13.09.2010 12:00 19,8 C 17,2 C 4,5 UV-I 6,0 C 65 % 82 % 100 % 1026,5 hPa 0,0 l/m 3,6 km/h (1 Bft) 0,80 h 0,00 h 4,9 km/h (1 Bft)
13.09.2010 13:00 20,4 C 18,4 C 6,7 UV-I 5,7 C 63 % 73 % 100 % 1026,4 hPa 0,0 l/m 4,7 km/h (1 Bft) 0,80 h 0,00 h 6,3 km/h (2 Bft)
13.09.2010 14:00 21,3 C 19,3 C 5,9 UV-I 5,1 C 59 % 66 % 100 % 1026,8 hPa 0,0 l/m 4,5 km/h (1 Bft) 0,83 h 0,00 h 7,4 km/h (2 Bft)
13.09.2010 15:00 21,7 C 19,0 C 3,9 UV-I 2,9 C 57 % 68 % 82 % 1026,8 hPa 0,0 l/m 4,3 km/h (1 Bft) 0,33 h 0,00 h 7,1 km/h (2 Bft)
13.09.2010 16:00 22,3 C 19,8 C 4,1 UV-I 4,0 C 54 % 59 % 100 % 1028,0 hPa 0,1 l/m 5,2 km/h (1 Bft) 0,73 h 0,00 h 8,2 km/h (2 Bft)
13.09.2010 17:00 22,9 C 19,7 C 2,7 UV-I 2,9 C 50 % 57 % 77 % 1027,8 hPa 0,0 l/m 4,7 km/h (1 Bft) 0,40 h 0,00 h 7,7 km/h (2 Bft)
13.09.2010 18:00 22,5 C 18,6 C 1,4 UV-I 0,5 C 51 % 62 % 13 % 1026,2 hPa 0,0 l/m 1,6 km/h (1 Bft) 0,00 h 0,00 h 3,2 km/h (1 Bft)
13.09.2010 19:00 22,0 C 17,0 C 0,4 UV-I 0,0 C 53 % 67 % 0 % 1025,3 hPa 0,0 l/m 0,2 km/h (0 Bft) 0,00 h 0,00 h 0,4 km/h (0 Bft)
13.09.2010 20:00 21,3 C 15,7 C 0,0 UV-I 0,0 C 54 % 71 % 0 % 1024,7 hPa 0,0 l/m 0,2 km/h (0 Bft) 0,00 h 0,00 h 0,3 km/h (0 Bft)
13.09.2010 21:00 20,8 C 15,1 C 0,0 UV-I 0,0 C 56 % 74 % 0 % 1024,2 hPa 0,0 l/m 0,3 km/h (0 Bft) 0,00 h 0,03 h 1,3 km/h (1 Bft)
13.09.2010 22:00 20,6 C 14,6 C 0,0 UV-I 0,0 C 57 % 76 % 0 % 1023,8 hPa 0,0 l/m 0,7 km/h (0 Bft) 0,00 h 0,17 h 2,4 km/h (1 Bft)
13.09.2010 23:00 20,4 C 15,0 C 0,0 UV-I 0,0 C 57 % 75 % 0 % 1023,4 hPa 0,0 l/m 2,6 km/h (1 Bft) 0,00 h 0,32 h 5,0 km/h (1 Bft)
14.09.2010 00:00 20,0 C 14,9 C 0,0 UV-I 0,0 C 57 % 77 % 0 % 1022,8 hPa 0,0 l/m 3,2 km/h (1 Bft) 0,00 h 0,27 h 8,4 km/h (2 Bft)
14.09.2010 01:00 19,8 C 15,0 C 0,0 UV-I 0,0 C 58 % 79 % 0 % 1022,2 hPa 0,0 l/m 3,0 km/h (1 Bft) 0,00 h 0,00 h 5,4 km/h (1 Bft)
14.09.2010 02:00 19,7 C 15,2 C 0,0 UV-I 0,0 C 59 % 78 % 0 % 1021,3 hPa 0,0 l/m 4,3 km/h (1 Bft) 0,00 h 0,10 h 5,8 km/h (1 Bft)
14.09.2010 03:00 19,6 C 15,2 C 0,0 UV-I 0,0 C 60 % 81 % 0 % 1020,6 hPa 0,0 l/m 4,4 km/h (1 Bft) 0,00 h 0,47 h 6,4 km/h (2 Bft)
14.09.2010 04:00 19,5 C 15,1 C 0,1 UV-I 0,0 C 61 % 81 % 0 % 1020,0 hPa 0,0 l/m 5,3 km/h (1 Bft) 0,00 h 0,00 h 7,9 km/h (2 Bft)
14.09.2010 05:00 19,4 C 15,6 C 0,0 UV-I 0,0 C 62 % 81 % 0 % 1019,2 hPa 0,0 l/m 7,1 km/h (2 Bft) 0,00 h 0,00 h 10,0 km/h (2 Bft)
14.09.2010 06:00 19,4 C 15,6 C 0,0 UV-I 0,0 C 63 % 83 % 0 % 1018,8 hPa 0,0 l/m 7,5 km/h (2 Bft) 0,00 h 0,00 h 10,4 km/h (2 Bft)
14.09.2010 07:00 19,2 C 15,5 C 0,2 UV-I 0,0 C 65 % 85 % 0 % 1018,5 hPa 0,0 l/m 8,1 km/h (2 Bft) 0,00 h 0,00 h 10,4 km/h (2 Bft)
14.09.2010 08:00 19,2 C 15,8 C 0,5 UV-I 0,0 C 66 % 84 % 0 % 1018,0 hPa 0,0 l/m 9,6 km/h (2 Bft) 0,00 h 0,03 h 12,5 km/h (3 Bft)
14.09.2010 09:00 19,6 C 16,3 C 1,4 UV-I 0,3 C 65 % 82 % 7 % 1018,0 hPa 0,0 l/m 10,5 km/h (2 Bft) 0,00 h 0,00 h 15,4 km/h (3 Bft)
14.09.2010 10:00 20,2 C 16,6 C 1,9 UV-I 0,6 C 64 % 81 % 16 % 1018,2 hPa 0,0 l/m 10,9 km/h (2 Bft) 0,00 h 0,00 h 15,3 km/h (3 Bft)
14.09.2010 11:00 20,7 C 17,2 C 2,6 UV-I 1,0 C 63 % 80 % 28 % 1018,1 hPa 0,0 l/m 13,1 km/h (3 Bft) 0,00 h 0,00 h 18,2 km/h (3 Bft)
14.09.2010 12:00 21,0 C 17,6 C 2,7 UV-I 1,1 C 62 % 77 % 32 % 1018,0 hPa 0,0 l/m 12,1 km/h (2 Bft) 0,00 h 0,00 h 16,3 km/h (3 Bft)
14.09.2010 13:00 21,3 C 18,1 C 3,4 UV-I 1,2 C 61 % 76 % 35 % 1017,8 hPa 0,0 l/m 10,9 km/h (2 Bft) 0,00 h 0,10 h 15,4 km/h (3 Bft)
14.09.2010 14:00 21,7 C 18,5 C 3,2 UV-I 1,4 C 60 % 74 % 39 % 1017,4 hPa 0,0 l/m 10,0 km/h (2 Bft) 0,00 h 0,03 h 15,7 km/h (3 Bft)
14.09.2010 15:00 22,1 C 18,8 C 2,4 UV-I 1,0 C 60 % 73 % 30 % 1017,1 hPa 0,0 l/m 10,3 km/h (2 Bft) 0,00 h 0,00 h 12,3 km/h (3 Bft)
14.09.2010 16:00 22,1 C 18,5 C 1,2 UV-I 0,2 C 59 % 74 % 5 % 1016,5 hPa 0,0 l/m 8,0 km/h (2 Bft) 0,00 h 0,00 h 12,5 km/h (3 Bft)
14.09.2010 17:00 22,0 C 18,7 C 1,7 UV-I 0,6 C 59 % 74 % 16 % 1015,9 hPa 0,0 l/m 8,9 km/h (2 Bft) 0,00 h 0,00 h 10,9 km/h (2 Bft)
14.09.2010 18:00 22,0 C 18,9 C 0,7 UV-I 0,1 C 60 % 75 % 3 % 1014,9 hPa 0,0 l/m 10,0 km/h (2 Bft) 0,00 h 0,00 h 13,8 km/h (3 Bft)
14.09.2010 19:00 21,9 C 18,8 C 0,3 UV-I 0,0 C 60 % 75 % 0 % 1014,1 hPa 0,0 l/m 10,9 km/h (2 Bft) 0,00 h 0,00 h 16,2 km/h (3 Bft)
14.09.2010 20:00 21,5 C 18,7 C 0,0 UV-I 0,0 C 61 % 76 % 0 % 1013,5 hPa 0,0 l/m 11,1 km/h (2 Bft) 0,00 h 0,00 h 13,7 km/h (3 Bft)
14.09.2010 21:00 21,0 C 18,6 C 0,0 UV-I 0,0 C 63 % 77 % 0 % 1012,9 hPa 0,0 l/m 11,5 km/h (2 Bft) 0,00 h 0,17 h 14,7 km/h (3 Bft)
14.09.2010 22:00 20,7 C 18,3 C 0,0 UV-I 0,0 C 65 % 80 % 0 % 1012,1 hPa 0,0 l/m 10,2 km/h (2 Bft) 0,00 h 0,33 h 13,1 km/h (3 Bft)
14.09.2010 23:00 20,5 C 17,6 C 0,0 UV-I 0,0 C 67 % 84 % 0 % 1011,4 hPa 0,2 l/m 9,9 km/h (2 Bft) 0,00 h 0,68 h 13,4 km/h (3 Bft)
15.09.2010 00:00 20,3 C 17,1 C 0,0 UV-I 0,0 C 69 % 88 % 0 % 1010,5 hPa 0,7 l/m 7,7 km/h (2 Bft) 0,00 h 1,00 h 10,3 km/h (2 Bft)
15.09.2010 01:00 20,2 C 16,8 C 0,0 UV-I 0,0 C 71 % 91 % 0 % 1009,4 hPa 0,4 l/m 8,3 km/h (2 Bft) 0,00 h 0,90 h 11,9 km/h (2 Bft)
15.09.2010 02:00 20,0 C 15,4 C 0,0 UV-I 0,0 C 71 % 91 % 0 % 1009,1 hPa 1,7 l/m 8,1 km/h (2 Bft) 0,00 h 0,93 h 13,9 km/h (3 Bft)
15.09.2010 03:00 19,9 C 13,1 C 0,0 UV-I 0,0 C 68 % 92 % 0 % 1009,6 hPa 0,8 l/m 2,0 km/h (1 Bft) 0,00 h 1,00 h 3,7 km/h (1 Bft)
15.09.2010 04:00 19,7 C 12,8 C 0,0 UV-I 0,0 C 66 % 93 % 0 % 1009,4 hPa 0,8 l/m 1,9 km/h (1 Bft) 0,00 h 0,77 h 4,7 km/h (1 Bft)
15.09.2010 05:00 19,4 C 13,0 C 0,0 UV-I 0,0 C 67 % 94 % 0 % 1009,6 hPa 0,1 l/m 3,2 km/h (1 Bft) 0,00 h 0,27 h 6,8 km/h (2 Bft)
15.09.2010 06:00 19,4 C 13,2 C 0,0 UV-I 0,0 C 67 % 93 % 0 % 1009,9 hPa 0,0 l/m 4,0 km/h (1 Bft) 0,00 h 0,17 h 6,7 km/h (2 Bft)
15.09.2010 07:00 19,6 C 12,6 C 0,3 UV-I 0,0 C 65 % 93 % 0 % 1010,4 hPa 0,0 l/m 2,3 km/h (1 Bft) 0,00 h 0,30 h 4,3 km/h (1 Bft)
15.09.2010 08:00 19,9 C 12,7 C 1,1 UV-I 1,2 C 64 % 93 % 31 % 1010,9 hPa 0,0 l/m 3,0 km/h (1 Bft) 0,27 h 0,17 h 5,9 km/h (2 Bft)
15.09.2010 09:00 20,2 C 13,7 C 1,9 UV-I 5,3 C 63 % 90 % 100 % 1011,1 hPa 0,0 l/m 4,7 km/h (1 Bft) 1,00 h 0,00 h 6,6 km/h (2 Bft)
15.09.2010 10:00 20,4 C 14,4 C 2,6 UV-I 2,6 C 61 % 84 % 72 % 1011,5 hPa 0,0 l/m 5,6 km/h (1 Bft) 0,33 h 0,00 h 8,1 km/h (2 Bft)
15.09.2010 11:00 20,5 C 15,4 C 3,9 UV-I 4,8 C 58 % 75 % 94 % 1011,5 hPa 0,0 l/m 8,0 km/h (2 Bft) 0,83 h 0,00 h 11,8 km/h (2 Bft)
15.09.2010 12:00 20,6 C 16,2 C 4,4 UV-I 3,8 C 55 % 68 % 93 % 1011,1 hPa 0,0 l/m 9,0 km/h (2 Bft) 0,83 h 0,00 h 11,5 km/h (2 Bft)
15.09.2010 13:00 20,8 C 16,6 C 4,2 UV-I 2,6 C 54 % 66 % 74 % 1010,5 hPa 0,0 l/m 7,6 km/h (2 Bft) 0,37 h 0,00 h 9,0 km/h (2 Bft)
15.09.2010 14:00 21,2 C 17,4 C 5,4 UV-I 3,2 C 51 % 60 % 77 % 1010,3 hPa 0,0 l/m 9,6 km/h (2 Bft) 0,50 h 0,00 h 13,0 km/h (3 Bft)
15.09.2010 15:00 22,3 C 18,0 C 6,1 UV-I 3,6 C 46 % 53 % 92 % 1011,6 hPa 0,0 l/m 10,8 km/h (2 Bft) 0,83 h 0,00 h 14,5 km/h (3 Bft)
15.09.2010 16:00 23,2 C 17,8 C 4,2 UV-I 3,1 C 43 % 53 % 87 % 1012,1 hPa 0,0 l/m 10,1 km/h (2 Bft) 0,77 h 0,00 h 12,3 km/h (3 Bft)
15.09.2010 17:00 23,2 C 16,9 C 1,7 UV-I 1,1 C 42 % 54 % 32 % 1010,3 hPa 0,0 l/m 8,1 km/h (2 Bft) 0,00 h 0,00 h 9,8 km/h (2 Bft)
15.09.2010 18:00 22,4 C 15,9 C 0,5 UV-I 0,0 C 43 % 58 % 0 % 1008,8 hPa 0,0 l/m 4,3 km/h (1 Bft) 0,00 h 0,00 h 6,2 km/h (2 Bft)
15.09.2010 19:00 21,8 C 15,2 C 0,2 UV-I 0,0 C 44 % 62 % 0 % 1008,1 hPa 0,0 l/m 1,7 km/h (1 Bft) 0,00 h 0,00 h 4,2 km/h (1 Bft)
15.09.2010 20:00 21,2 C 14,6 C 0,1 UV-I 0,0 C 45 % 65 % 0 % 1007,8 hPa 0,0 l/m 3,5 km/h (1 Bft) 0,00 h 0,00 h 6,2 km/h (2 Bft)
15.09.2010 21:00 20,5 C 14,4 C 0,1 UV-I 0,0 C 47 % 66 % 0 % 1007,3 hPa 0,0 l/m 5,2 km/h (1 Bft) 0,00 h 0,07 h 7,7 km/h (2 Bft)
15.09.2010 22:00 19,9 C 14,4 C 0,1 UV-I 0,0 C 48 % 66 % 0 % 1006,9 hPa 0,0 l/m 6,3 km/h (2 Bft) 0,00 h 0,00 h 9,7 km/h (2 Bft)
15.09.2010 23:00 19,5 C 14,3 C 0,1 UV-I 0,0 C 49 % 68 % 0 % 1006,5 hPa 0,0 l/m 8,3 km/h (2 Bft) 0,00 h 0,03 h 10,5 km/h (2 Bft)
16.09.2010 00:00 19,2 C 14,3 C 0,1 UV-I 0,0 C 50 % 69 % 0 % 1006,1 hPa 0,0 l/m 9,5 km/h (2 Bft) 0,00 h 0,13 h 14,6 km/h (3 Bft)
16.09.2010 01:00 19,0 C 14,1 C 0,1 UV-I 0,0 C 53 % 74 % 0 % 1005,9 hPa 0,3 l/m 9,7 km/h (2 Bft) 0,00 h 0,53 h 12,2 km/h (2 Bft)
16.09.2010 02:00 18,9 C 12,3 C 0,1 UV-I 0,0 C 57 % 86 % 0 % 1006,8 hPa 5,3 l/m 6,2 km/h (2 Bft) 0,00 h 1,00 h 8,7 km/h (2 Bft)
16.09.2010 03:00 18,9 C 10,7 C 0,0 UV-I 0,0 C 58 % 89 % 0 % 1007,5 hPa 0,2 l/m 2,0 km/h (1 Bft) 0,00 h 0,60 h 2,7 km/h (1 Bft)
16.09.2010 04:00 18,6 C 9,9 C 0,0 UV-I 0,0 C 58 % 90 % 0 % 1007,5 hPa 0,0 l/m 0,0 km/h (0 Bft) 0,00 h 0,50 h 0,0 km/h (0 Bft)
16.09.2010 05:00 18,3 C 9,2 C 0,0 UV-I 0,0 C 58 % 92 % 0 % 1007,3 hPa 0,0 l/m 0,3 km/h (0 Bft) 0,00 h 0,63 h 0,8 km/h (0 Bft)
16.09.2010 06:00 17,9 C 8,8 C 0,0 UV-I 0,0 C 58 % 92 % 0 % 1007,2 hPa 0,1 l/m 0,0 km/h (0 Bft) 0,00 h 0,43 h 0,0 km/h (0 Bft)
16.09.2010 07:00 17,7 C 9,2 C 0,3 UV-I 0,0 C 60 % 93 % 0 % 1007,8 hPa 0,0 l/m 0,5 km/h (0 Bft) 0,00 h 0,55 h 1,7 km/h (1 Bft)
16.09.2010 08:00 17,9 C 10,5 C 1,0 UV-I 1,6 C 61 % 94 % 38 % 1008,3 hPa 0,0 l/m 1,6 km/h (1 Bft) 0,40 h 0,27 h 4,4 km/h (1 Bft)
16.09.2010 09:00 17,9 C 12,4 C 1,9 UV-I 4,5 C 63 % 93 % 98 % 1008,8 hPa 0,0 l/m 4,1 km/h (1 Bft) 0,97 h 0,07 h 7,2 km/h (2 Bft)
16.09.2010 10:00 18,1 C 13,9 C 3,3 UV-I 4,2 C 63 % 87 % 100 % 1009,5 hPa 0,0 l/m 7,1 km/h (2 Bft) 1,00 h 0,00 h 10,7 km/h (2 Bft)
16.09.2010 11:00 18,3 C 15,2 C 3,7 UV-I 5,1 C 61 % 78 % 99 % 1009,6 hPa 0,0 l/m 7,6 km/h (2 Bft) 0,97 h 0,00 h 9,6 km/h (2 Bft)
16.09.2010 12:00 18,8 C 16,4 C 4,6 UV-I 4,7 C 59 % 72 % 98 % 1009,6 hPa 0,0 l/m 7,3 km/h (2 Bft) 0,97 h 0,00 h 8,8 km/h (2 Bft)
16.09.2010 13:00 19,2 C 16,0 C 2,5 UV-I 1,4 C 57 % 73 % 41 % 1009,4 hPa 0,7 l/m 5,5 km/h (1 Bft) 0,03 h 0,47 h 8,2 km/h (2 Bft)
16.09.2010 14:00 19,6 C 15,1 C 3,4 UV-I 1,4 C 59 % 81 % 38 % 1009,5 hPa 0,2 l/m 5,4 km/h (1 Bft) 0,23 h 0,43 h 8,6 km/h (2 Bft)
16.09.2010 15:00 19,8 C 14,4 C 2,1 UV-I 0,3 C 59 % 83 % 8 % 1009,2 hPa 0,2 l/m 4,6 km/h (1 Bft) 0,00 h 0,27 h 8,3 km/h (2 Bft)
16.09.2010 16:00 20,9 C 16,4 C 4,2 UV-I 3,8 C 57 % 74 % 89 % 1011,6 hPa 0,0 l/m 6,6 km/h (2 Bft) 0,73 h 0,00 h 11,1 km/h (2 Bft)
16.09.2010 17:00 21,4 C 14,7 C 0,9 UV-I 0,2 C 54 % 79 % 6 % 1010,1 hPa 0,3 l/m 2,7 km/h (1 Bft) 0,00 h 0,53 h 3,9 km/h (1 Bft)
16.09.2010 18:00 20,7 C 13,6 C 0,3 UV-I 0,0 C 57 % 86 % 0 % 1008,9 hPa 1,0 l/m 0,6 km/h (0 Bft) 0,00 h 0,83 h 1,6 km/h (1 Bft)
16.09.2010 19:00 19,9 C 12,7 C 0,2 UV-I 0,0 C 59 % 89 % 0 % 1008,5 hPa 0,9 l/m 2,2 km/h (1 Bft) 0,00 h 0,77 h 5,2 km/h (1 Bft)
16.09.2010 20:00 19,1 C 11,8 C 0,0 UV-I 0,0 C 60 % 90 % 0 % 1008,3 hPa 0,3 l/m 1,0 km/h (0 Bft) 0,00 h 0,47 h 1,4 km/h (1 Bft)
16.09.2010 21:00 18,7 C 11,6 C 0,0 UV-I 0,0 C 61 % 91 % 0 % 1008,7 hPa 0,3 l/m 0,3 km/h (0 Bft) 0,00 h 0,53 h 1,1 km/h (1 Bft)
16.09.2010 22:00 18,5 C 11,6 C 0,0 UV-I 0,0 C 62 % 92 % 0 % 1008,6 hPa 0,1 l/m 0,5 km/h (0 Bft) 0,00 h 0,33 h 1,6 km/h (1 Bft)
16.09.2010 23:00 18,3 C 11,6 C 0,0 UV-I 0,0 C 62 % 92 % 0 % 1008,4 hPa 0,0 l/m 0,7 km/h (0 Bft) 0,00 h 0,17 h 1,3 km/h (1 Bft)
17.09.2010 00:00 18,2 C 11,9 C 0,0 UV-I 0,0 C 64 % 92 % 0 % 1008,4 hPa 0,1 l/m 0,6 km/h (0 Bft) 0,00 h 0,37 h 1,9 km/h (1 Bft)
17.09.2010 01:00 18,2 C 11,9 C 0,0 UV-I 0,0 C 63 % 92 % 0 % 1008,4 hPa 0,0 l/m 2,0 km/h (1 Bft) 0,00 h 0,33 h 4,6 km/h (1 Bft)
17.09.2010 02:00 18,0 C 11,7 C 0,0 UV-I 0,0 C 63 % 92 % 0 % 1008,4 hPa 0,0 l/m 1,9 km/h (1 Bft) 0,00 h 0,10 h 4,2 km/h (1 Bft)
17.09.2010 03:00 17,9 C 11,6 C 0,0 UV-I 0,0 C 63 % 92 % 0 % 1008,7 hPa 0,0 l/m 3,2 km/h (1 Bft) 0,00 h 0,20 h 5,4 km/h (1 Bft)
17.09.2010 04:00 17,8 C 11,3 C 0,0 UV-I 0,0 C 63 % 92 % 0 % 1008,8 hPa 0,0 l/m 2,7 km/h (1 Bft) 0,00 h 0,10 h 5,3 km/h (1 Bft)
17.09.2010 05:00 17,7 C 10,6 C 0,0 UV-I 0,0 C 62 % 91 % 0 % 1008,9 hPa 0,0 l/m 1,9 km/h (1 Bft) 0,00 h 0,40 h 3,2 km/h (1 Bft)
17.09.2010 06:00 17,5 C 10,0 C 0,0 UV-I 0,0 C 62 % 93 % 0 % 1009,1 hPa 0,0 l/m 1,3 km/h (1 Bft) 0,00 h 0,27 h 3,4 km/h (1 Bft)
17.09.2010 07:00 17,3 C 9,9 C 0,3 UV-I 0,0 C 61 % 93 % 0 % 1009,4 hPa 0,0 l/m 1,7 km/h (1 Bft) 0,00 h 0,27 h 3,5 km/h (1 Bft)
17.09.2010 08:00 17,2 C 10,4 C 0,8 UV-I 0,1 C 62 % 92 % 2 % 1009,9 hPa 0,0 l/m 2,9 km/h (1 Bft) 0,00 h 0,17 h 5,0 km/h (1 Bft)
17.09.2010 09:00 17,3 C 11,4 C 1,9 UV-I 3,6 C 62 % 91 % 92 % 1010,5 hPa 0,0 l/m 3,6 km/h (1 Bft) 0,83 h 0,00 h 6,2 km/h (2 Bft)
17.09.2010 10:00 17,5 C 13,0 C 3,2 UV-I 4,9 C 62 % 86 % 100 % 1011,1 hPa 0,0 l/m 4,4 km/h (1 Bft) 1,00 h 0,00 h 7,1 km/h (2 Bft)
17.09.2010 11:00 17,9 C 14,5 C 3,2 UV-I 4,3 C 62 % 82 % 94 % 1011,8 hPa 0,5 l/m 5,6 km/h (1 Bft) 0,90 h 0,13 h 8,6 km/h (2 Bft)
17.09.2010 12:00 18,1 C 13,6 C 2,9 UV-I 1,1 C 62 % 84 % 28 % 1012,0 hPa 0,6 l/m 3,3 km/h (1 Bft) 0,17 h 0,23 h 6,5 km/h (2 Bft)
17.09.2010 13:00 18,5 C 13,9 C 4,0 UV-I 2,3 C 61 % 81 % 55 % 1012,6 hPa 0,0 l/m 5,6 km/h (1 Bft) 0,43 h 0,27 h 8,6 km/h (2 Bft)
17.09.2010 14:00 19,1 C 13,4 C 2,2 UV-I 1,4 C 58 % 79 % 31 % 1013,4 hPa 0,0 l/m 4,2 km/h (1 Bft) 0,20 h 0,57 h 6,2 km/h (2 Bft)
17.09.2010 15:00 19,1 C 13,0 C 2,0 UV-I 0,9 C 57 % 82 % 27 % 1013,5 hPa 0,0 l/m 2,5 km/h (1 Bft) 0,00 h 0,07 h 4,5 km/h (1 Bft)
17.09.2010 16:00 18,9 C 13,4 C 1,4 UV-I 0,8 C 58 % 82 % 23 % 1013,4 hPa 0,0 l/m 2,8 km/h (1 Bft) 0,00 h 0,00 h 5,8 km/h (2 Bft)
17.09.2010 17:00 19,0 C 14,0 C 1,8 UV-I 1,3 C 58 % 79 % 38 % 1013,9 hPa 0,0 l/m 2,6 km/h (1 Bft) 0,00 h 0,00 h 4,1 km/h (1 Bft)
17.09.2010 18:00 19,0 C 13,9 C 0,8 UV-I 0,3 C 58 % 79 % 10 % 1014,0 hPa 0,0 l/m 2,5 km/h (1 Bft) 0,00 h 0,00 h 5,0 km/h (1 Bft)
17.09.2010 19:00 18,7 C 12,8 C 0,3 UV-I 0,0 C 58 % 81 % 0 % 1014,3 hPa 0,1 l/m 1,5 km/h (1 Bft) 0,00 h 0,20 h 4,1 km/h (1 Bft)
17.09.2010 20:00 18,3 C 11,7 C 0,0 UV-I 0,0 C 59 % 85 % 0 % 1014,8 hPa 0,0 l/m 0,4 km/h (0 Bft) 0,00 h 0,23 h 0,2 km/h (0 Bft)
17.09.2010 21:00 17,9 C 10,7 C 0,0 UV-I 0,0 C 59 % 87 % 0 % 1015,1 hPa 0,0 l/m 0,0 km/h (0 Bft) 0,00 h 0,33 h 0,0 km/h (0 Bft)
17.09.2010 22:00 17,5 C 9,8 C 0,0 UV-I 0,0 C 59 % 89 % 0 % 1015,4 hPa 0,0 l/m 0,1 km/h (0 Bft) 0,00 h 0,23 h 0,5 km/h (0 Bft)
17.09.2010 23:00 17,2 C 9,2 C 0,0 UV-I 0,0 C 59 % 89 % 0 % 1015,7 hPa 0,0 l/m 0,3 km/h (0 Bft) 0,00 h 0,33 h 1,4 km/h (1 Bft)
18.09.2010 00:00 17,0 C 8,9 C 0,0 UV-I 0,0 C 58 % 90 % 0 % 1015,7 hPa 0,0 l/m 0,2 km/h (0 Bft) 0,00 h 0,37 h 1,1 km/h (1 Bft)
18.09.2010 01:00 16,7 C 8,7 C 0,0 UV-I 0,0 C 58 % 90 % 0 % 1015,7 hPa 0,0 l/m 0,3 km/h (0 Bft) 0,00 h 0,27 h 1,7 km/h (1 Bft)
18.09.2010 02:00 16,6 C 9,1 C 0,0 UV-I 0,0 C 59 % 91 % 0 % 1015,8 hPa 0,0 l/m 0,5 km/h (0 Bft) 0,00 h 0,23 h 2,3 km/h (1 Bft)
18.09.2010 03:00 16,6 C 9,1 C 0,0 UV-I 0,0 C 60 % 91 % 0 % 1015,7 hPa 0,0 l/m 0,6 km/h (0 Bft) 0,00 h 0,23 h 2,1 km/h (1 Bft)
18.09.2010 04:00 16,4 C 9,1 C 0,0 UV-I 0,0 C 60 % 91 % 0 % 1015,9 hPa 0,0 l/m 1,3 km/h (1 Bft) 0,00 h 0,20 h 3,1 km/h (1 Bft)
18.09.2010 05:00 16,4 C 9,4 C 0,0 UV-I 0,0 C 60 % 91 % 0 % 1016,1 hPa 0,0 l/m 1,0 km/h (0 Bft) 0,00 h 0,27 h 3,3 km/h (1 Bft)
18.09.2010 06:00 16,4 C 9,3 C 0,0 UV-I 0,0 C 60 % 90 % 0 % 1016,2 hPa 0,4 l/m 1,7 km/h (1 Bft) 0,00 h 0,60 h 4,0 km/h (1 Bft)
18.09.2010 07:00 16,2 C 9,0 C 0,3 UV-I 0,0 C 61 % 92 % 0 % 1016,5 hPa 0,1 l/m 0,8 km/h (0 Bft) 0,00 h 0,27 h 1,7 km/h (1 Bft)
18.09.2010 08:00 16,3 C 9,2 C 0,9 UV-I 0,0 C 62 % 92 % 0 % 1016,9 hPa 0,0 l/m 0,5 km/h (0 Bft) 0,00 h 0,13 h 1,3 km/h (1 Bft)
18.09.2010 09:00 16,3 C 9,9 C 1,7 UV-I 2,1 C 61 % 92 % 58 % 1017,1 hPa 0,0 l/m 1,5 km/h (1 Bft) 0,27 h 0,13 h 4,1 km/h (1 Bft)
18.09.2010 10:00 16,5 C 11,4 C 3,8 UV-I 5,9 C 61 % 88 % 100 % 1016,9 hPa 0,0 l/m 3,2 km/h (1 Bft) 1,00 h 0,00 h 5,7 km/h (1 Bft)
18.09.2010 11:00 16,7 C 13,6 C 4,3 UV-I 7,8 C 61 % 79 % 100 % 1017,3 hPa 0,0 l/m 4,2 km/h (1 Bft) 1,00 h 0,00 h 7,5 km/h (2 Bft)
18.09.2010 12:00 17,2 C 14,6 C 4,1 UV-I 5,0 C 58 % 69 % 87 % 1017,6 hPa 0,0 l/m 3,3 km/h (1 Bft) 0,73 h 0,00 h 5,6 km/h (1 Bft)
18.09.2010 13:00 18,1 C 15,6 C 5,5 UV-I 5,6 C 55 % 63 % 96 % 1017,9 hPa 0,0 l/m 4,5 km/h (1 Bft) 0,90 h 0,00 h 8,3 km/h (2 Bft)
18.09.2010 14:00 18,9 C 14,9 C 2,3 UV-I 1,7 C 52 % 61 % 49 % 1018,0 hPa 0,0 l/m 3,6 km/h (1 Bft) 0,00 h 0,00 h 5,5 km/h (1 Bft)
18.09.2010 15:00 19,1 C 15,3 C 3,8 UV-I 2,6 C 50 % 60 % 69 % 1018,0 hPa 0,0 l/m 4,5 km/h (1 Bft) 0,23 h 0,00 h 7,5 km/h (2 Bft)
18.09.2010 16:00 20,5 C 16,1 C 3,6 UV-I 3,8 C 47 % 57 % 84 % 1020,2 hPa 0,0 l/m 3,0 km/h (1 Bft) 0,63 h 0,00 h 4,8 km/h (1 Bft)
18.09.2010 17:00 20,3 C 14,9 C 1,1 UV-I 0,4 C 47 % 63 % 12 % 1018,0 hPa 0,0 l/m 1,5 km/h (1 Bft) 0,00 h 0,00 h 2,3 km/h (1 Bft)
18.09.2010 18:00 19,8 C 14,3 C 0,9 UV-I 0,0 C 48 % 65 % 1 % 1017,5 hPa 0,0 l/m 0,9 km/h (0 Bft) 0,00 h 0,00 h 1,7 km/h (1 Bft)
18.09.2010 19:00 19,1 C 13,0 C 0,3 UV-I 0,0 C 51 % 72 % 0 % 1017,2 hPa 0,0 l/m 0,0 km/h (0 Bft) 0,00 h 0,00 h 0,0 km/h (0 Bft)
18.09.2010 20:00 18,5 C 11,1 C 0,0 UV-I 0,0 C 53 % 79 % 0 % 1017,3 hPa 0,0 l/m 0,0 km/h (0 Bft) 0,00 h 0,17 h 0,0 km/h (0 Bft)
18.09.2010 21:00 17,8 C 9,6 C 0,1 UV-I 0,0 C 55 % 85 % 0 % 1017,3 hPa 0,0 l/m 0,0 km/h (0 Bft) 0,00 h 0,23 h 0,0 km/h (0 Bft)
18.09.2010 22:00 17,4 C 8,7 C 0,1 UV-I 0,0 C 56 % 87 % 0 % 1017,1 hPa 0,0 l/m 0,0 km/h (0 Bft) 0,00 h 0,33 h 0,0 km/h (0 Bft)
18.09.2010 23:00 17,1 C 8,0 C 0,1 UV-I 0,0 C 56 % 89 % 0 % 1017,2 hPa 0,0 l/m 0,0 km/h (0 Bft) 0,00 h 0,33 h 0,0 km/h (0 Bft)
19.09.2010 00:00 16,8 C 7,5 C 0,1 UV-I 0,0 C 56 % 90 % 0 % 1017,2 hPa 0,0 l/m 0,0 km/h (0 Bft) 0,00 h 0,43 h 0,0 km/h (0 Bft)
19.09.2010 01:00 16,6 C 7,2 C 0,1 UV-I 0,0 C 56 % 91 % 0 % 1016,5 hPa 0,0 l/m 0,0 km/h (0 Bft) 0,00 h 0,43 h 0,0 km/h (0 Bft)
19.09.2010 02:00 16,4 C 7,4 C 0,1 UV-I 0,0 C 57 % 92 % 0 % 1016,3 hPa 0,0 l/m 0,0 km/h (0 Bft) 0,00 h 0,30 h 0,0 km/h (0 Bft)
19.09.2010 03:00 16,4 C 7,6 C 0,1 UV-I 0,0 C 57 % 93 % 0 % 1016,4 hPa 0,0 l/m 0,0 km/h (0 Bft) 0,00 h 0,27 h 0,1 km/h (0 Bft)
19.09.2010 04:00 16,3 C 7,5 C 0,0 UV-I 0,0 C 57 % 92 % 0 % 1016,2 hPa 0,0 l/m 0,0 km/h (0 Bft) 0,00 h 0,47 h 0,7 km/h (0 Bft)
19.09.2010 05:00 16,0 C 7,4 C 0,1 UV-I 0,0 C 57 % 92 % 0 % 1016,0 hPa 0,0 l/m 0,1 km/h (0 Bft) 0,00 h 0,37 h 0,4 km/h (0 Bft)
19.09.2010 06:00 15,9 C 6,8 C 0,1 UV-I 0,0 C 57 % 92 % 0 % 1016,2 hPa 0,0 l/m 0,0 km/h (0 Bft) 0,00 h 0,47 h 0,1 km/h (0 Bft)
19.09.2010 07:00 15,8 C 6,8 C 0,2 UV-I 0,0 C 57 % 93 % 0 % 1016,2 hPa 0,0 l/m 0,6 km/h (0 Bft) 0,00 h 0,33 h 1,0 km/h (0 Bft)
19.09.2010 08:00 15,8 C 8,1 C 0,4 UV-I 0,0 C 58 % 93 % 0 % 1016,5 hPa 0,0 l/m 0,7 km/h (0 Bft) 0,00 h 0,17 h 2,1 km/h (1 Bft)
19.09.2010 09:00 16,0 C 9,7 C 0,9 UV-I 0,3 C 58 % 90 % 7 % 1016,7 hPa 0,0 l/m 1,2 km/h (1 Bft) 0,00 h 0,00 h 2,5 km/h (1 Bft)
19.09.2010 10:00 16,4 C 11,4 C 1,6 UV-I 1,3 C 58 % 84 % 39 % 1017,0 hPa 0,0 l/m 2,4 km/h (1 Bft) 0,00 h 0,00 h 5,3 km/h (1 Bft)
19.09.2010 11:00 16,9 C 13,2 C 3,3 UV-I 3,0 C 57 % 78 % 86 % 1017,3 hPa 0,0 l/m 4,3 km/h (1 Bft) 0,53 h 0,00 h 7,6 km/h (2 Bft)
19.09.2010 12:00 17,4 C 15,0 C 4,1 UV-I 3,6 C 57 % 72 % 98 % 1017,2 hPa 0,0 l/m 5,8 km/h (2 Bft) 1,00 h 0,00 h 9,1 km/h (2 Bft)
19.09.2010 13:00 18,1 C 16,3 C 5,5 UV-I 4,8 C 56 % 67 % 100 % 1017,4 hPa 0,0 l/m 6,5 km/h (2 Bft) 1,00 h 0,00 h 8,9 km/h (2 Bft)
19.09.2010 14:00 18,8 C 16,4 C 3,0 UV-I 2,2 C 54 % 66 % 63 % 1017,5 hPa 0,0 l/m 6,0 km/h (2 Bft) 0,40 h 0,00 h 9,3 km/h (2 Bft)
19.09.2010 15:00 18,8 C 16,1 C 2,7 UV-I 1,5 C 54 % 67 % 42 % 1017,0 hPa 0,0 l/m 6,9 km/h (2 Bft) 0,00 h 0,00 h 10,7 km/h (2 Bft)
19.09.2010 16:00 18,8 C 15,9 C 1,9 UV-I 1,2 C 54 % 68 % 34 % 1016,8 hPa 0,0 l/m 6,2 km/h (2 Bft) 0,00 h 0,00 h 8,5 km/h (2 Bft)
19.09.2010 17:00 18,8 C 15,6 C 1,8 UV-I 1,1 C 55 % 70 % 31 % 1016,4 hPa 0,0 l/m 6,6 km/h (2 Bft) 0,00 h 0,00 h 9,5 km/h (2 Bft)
19.09.2010 18:00 18,7 C 14,8 C 0,8 UV-I 0,0 C 56 % 74 % 1 % 1016,2 hPa 0,0 l/m 4,2 km/h (1 Bft) 0,00 h 0,00 h 5,8 km/h (2 Bft)
19.09.2010 19:00 18,4 C 14,1 C 0,2 UV-I 0,0 C 56 % 76 % 0 % 1015,7 hPa 0,0 l/m 2,2 km/h (1 Bft) 0,00 h 0,00 h 5,4 km/h (1 Bft)
19.09.2010 20:00 18,1 C 13,9 C 0,1 UV-I 0,0 C 57 % 77 % 0 % 1015,6 hPa 0,0 l/m 1,3 km/h (1 Bft) 0,00 h 0,07 h 2,7 km/h (1 Bft)
19.09.2010 21:00 18,0 C 13,7 C 0,1 UV-I 0,0 C 58 % 78 % 0 % 1015,9 hPa 0,0 l/m 1,1 km/h (1 Bft) 0,00 h 0,10 h 2,7 km/h (1 Bft)
19.09.2010 22:00 17,9 C 13,6 C 0,1 UV-I 0,0 C 58 % 79 % 0 % 1015,7 hPa 0,0 l/m 1,5 km/h (1 Bft) 0,00 h 0,00 h 3,3 km/h (1 Bft)
19.09.2010 23:00 17,8 C 13,5 C 0,1 UV-I 0,0 C 59 % 80 % 0 % 1015,6 hPa 0,0 l/m 1,5 km/h (1 Bft) 0,00 h 0,00 h 3,1 km/h (1 Bft)
Min-Datum _ 19.09.10 19.09.10 13.09.10 13.09.10 15.09.10 15.09.10 13.09.10 16.09.10 - 13.09.10 - - 13.09.10
_ Min-Zeit 07:48 06:56 00:00 00:00 17:26 15:46 00:00 00:46 - 00:00 - - 00:00
Minimum _ 15,6 C 6,4 C 0,0 UV-I 0,0 C 41 % 50 % 0 % 1005,9 hPa - 0,0 km/h (0 Bft) - - 0,0 km/h (0 Bft)
Max-Datum _ 15.09.10 13.09.10 13.09.10 18.09.10 15.09.10 13.09.10 13.09.10 13.09.10 16.09.10 14.09.10 13.09.10 13.09.10 14.09.10
_ Max-Zeit 16:48 17:00 13:24 13:44 02:18 09:04 08:52 17:06 02:24 11:42 08:46 00:06 11:26
Maximum _ 23,6 C 20,3 C 9,5 UV-I 8,4 C 73 % 96 % 100 % 1029,1 hPa 5,3 l/m 16,5 km/h
S-SO (3 Bft)
0,03 h 0,03 h 52,8 km/h
S-SO (7 Bft)
Durchschnitt _ 19,1 C 13,5 C 1,3 UV-I 1,1 C 59 % 81 % 25 % 1015,2 hPa #16,1 l/m 3,8 km/h (1 Bft) #29:08 h #31:31 h 5,9 km/h (2 Bft)
© 2012 W. Hausmann